<?xml version="1.0" encoding="UTF-8" standalone="no" ?>
<gpx xmlns="http://www.topografix.com/GPX/1/1" xmlns:xsi="http://www.w3.org/2001/XMLSchema-instance" xsi:schemaLocation="http://www.topografix.com/GPX/1/1 http://www.topografix.com/GPX/1/1/gpx.xsd" version="1.1" creator="VisuGPX - https://www.visugpx.com">
  <metadata>
    <name>Etape 2-1_Col de Marie Blanque</name>
  </metadata>
  <trk>
    <name><![CDATA[Etape 2_Chalets d'Iraty_Argelès Gazost_143 kms_3403 D+]]></name>
    <extensions>
      <line xmlns="http://www.topografix.com/GPX/gpx_style/0/2">
        <color>0000FF</color>
        <width>4</width>
      </line>
    </extensions>
    <trkseg>
      <trkpt lat="43.07293" lon="-0.60616">
        <ele>334</ele>
        <time>2021-08-20T18:53:36Z</time>
      </trkpt>
      <trkpt lat="43.07318" lon="-0.60615">
        <ele>336</ele>
        <time>2021-08-20T18:53:40Z</time>
      </trkpt>
      <trkpt lat="43.07345" lon="-0.6062">
        <ele>337</ele>
        <time>2021-08-20T18:53:45Z</time>
      </trkpt>
      <trkpt lat="43.07367" lon="-0.60628">
        <ele>337</ele>
        <time>2021-08-20T18:53:49Z</time>
      </trkpt>
      <trkpt lat="43.07458" lon="-0.60677">
        <ele>325</ele>
        <time>2021-08-20T18:54:06Z</time>
      </trkpt>
      <trkpt lat="43.07475" lon="-0.60684">
        <ele>325</ele>
        <time>2021-08-20T18:54:10Z</time>
      </trkpt>
      <trkpt lat="43.0749" lon="-0.60687">
        <ele>326</ele>
        <time>2021-08-20T18:54:12Z</time>
      </trkpt>
      <trkpt lat="43.07509" lon="-0.6068">
        <ele>327</ele>
        <time>2021-08-20T18:54:16Z</time>
      </trkpt>
      <trkpt lat="43.07517" lon="-0.6067">
        <ele>329</ele>
        <time>2021-08-20T18:54:18Z</time>
      </trkpt>
      <trkpt lat="43.07523" lon="-0.60658">
        <ele>331</ele>
        <time>2021-08-20T18:54:20Z</time>
      </trkpt>
      <trkpt lat="43.07532" lon="-0.60627">
        <ele>338</ele>
        <time>2021-08-20T18:54:24Z</time>
      </trkpt>
      <trkpt lat="43.07541" lon="-0.60581">
        <ele>345</ele>
        <time>2021-08-20T18:54:30Z</time>
      </trkpt>
      <trkpt lat="43.07556" lon="-0.60548">
        <ele>344</ele>
        <time>2021-08-20T18:54:35Z</time>
      </trkpt>
      <trkpt lat="43.07591" lon="-0.60515">
        <ele>336</ele>
        <time>2021-08-20T18:54:43Z</time>
      </trkpt>
      <trkpt lat="43.07597" lon="-0.60515">
        <ele>336</ele>
        <time>2021-08-20T18:54:44Z</time>
      </trkpt>
      <trkpt lat="43.07606" lon="-0.60521">
        <ele>335</ele>
        <time>2021-08-20T18:54:46Z</time>
      </trkpt>
      <trkpt lat="43.07619" lon="-0.60532">
        <ele>334</ele>
        <time>2021-08-20T18:54:48Z</time>
      </trkpt>
      <trkpt lat="43.07629" lon="-0.6054">
        <ele>333</ele>
        <time>2021-08-20T18:54:50Z</time>
      </trkpt>
      <trkpt lat="43.07638" lon="-0.60552">
        <ele>333</ele>
        <time>2021-08-20T18:54:53Z</time>
      </trkpt>
      <trkpt lat="43.07665" lon="-0.60613">
        <ele>332</ele>
        <time>2021-08-20T18:55:02Z</time>
      </trkpt>
      <trkpt lat="43.07681" lon="-0.60575">
        <ele>337</ele>
        <time>2021-08-20T18:55:08Z</time>
      </trkpt>
      <trkpt lat="43.07688" lon="-0.60528">
        <ele>341</ele>
        <time>2021-08-20T18:55:14Z</time>
      </trkpt>
      <trkpt lat="43.07689" lon="-0.60496">
        <ele>343</ele>
        <time>2021-08-20T18:55:18Z</time>
      </trkpt>
      <trkpt lat="43.07685" lon="-0.60404">
        <ele>343</ele>
        <time>2021-08-20T18:55:30Z</time>
      </trkpt>
      <trkpt lat="43.07686" lon="-0.60359">
        <ele>342</ele>
        <time>2021-08-20T18:55:36Z</time>
      </trkpt>
      <trkpt lat="43.07695" lon="-0.60309">
        <ele>344</ele>
        <time>2021-08-20T18:55:43Z</time>
      </trkpt>
      <trkpt lat="43.0769" lon="-0.60268">
        <ele>342</ele>
        <time>2021-08-20T18:55:48Z</time>
      </trkpt>
      <trkpt lat="43.0769" lon="-0.60238">
        <ele>343</ele>
        <time>2021-08-20T18:55:52Z</time>
      </trkpt>
      <trkpt lat="43.07703" lon="-0.60106">
        <ele>354</ele>
        <time>2021-08-20T18:56:09Z</time>
      </trkpt>
      <trkpt lat="43.07705" lon="-0.60069">
        <ele>355</ele>
        <time>2021-08-20T18:56:14Z</time>
      </trkpt>
      <trkpt lat="43.07697" lon="-0.60003">
        <ele>353</ele>
        <time>2021-08-20T18:56:23Z</time>
      </trkpt>
      <trkpt lat="43.07699" lon="-0.59976">
        <ele>353</ele>
        <time>2021-08-20T18:56:26Z</time>
      </trkpt>
      <trkpt lat="43.07712" lon="-0.59915">
        <ele>354</ele>
        <time>2021-08-20T18:56:34Z</time>
      </trkpt>
      <trkpt lat="43.07722" lon="-0.59853">
        <ele>355</ele>
        <time>2021-08-20T18:56:43Z</time>
      </trkpt>
      <trkpt lat="43.07722" lon="-0.59731">
        <ele>359</ele>
        <time>2021-08-20T18:56:59Z</time>
      </trkpt>
      <trkpt lat="43.07728" lon="-0.59706">
        <ele>359</ele>
        <time>2021-08-20T18:57:02Z</time>
      </trkpt>
      <trkpt lat="43.07739" lon="-0.59681">
        <ele>355</ele>
        <time>2021-08-20T18:57:06Z</time>
      </trkpt>
      <trkpt lat="43.0777" lon="-0.59638">
        <ele>360</ele>
        <time>2021-08-20T18:57:14Z</time>
      </trkpt>
      <trkpt lat="43.07788" lon="-0.59594">
        <ele>366</ele>
        <time>2021-08-20T18:57:20Z</time>
      </trkpt>
      <trkpt lat="43.07794" lon="-0.5957">
        <ele>369</ele>
        <time>2021-08-20T18:57:23Z</time>
      </trkpt>
      <trkpt lat="43.07789" lon="-0.5949">
        <ele>370</ele>
        <time>2021-08-20T18:57:34Z</time>
      </trkpt>
      <trkpt lat="43.0779" lon="-0.5946">
        <ele>372</ele>
        <time>2021-08-20T18:57:38Z</time>
      </trkpt>
      <trkpt lat="43.07797" lon="-0.59429">
        <ele>374</ele>
        <time>2021-08-20T18:57:42Z</time>
      </trkpt>
      <trkpt lat="43.07822" lon="-0.59365">
        <ele>370</ele>
        <time>2021-08-20T18:57:51Z</time>
      </trkpt>
      <trkpt lat="43.0783" lon="-0.59339">
        <ele>366</ele>
        <time>2021-08-20T18:57:55Z</time>
      </trkpt>
      <trkpt lat="43.07837" lon="-0.59295">
        <ele>366</ele>
        <time>2021-08-20T18:58:01Z</time>
      </trkpt>
      <trkpt lat="43.07837" lon="-0.59288">
        <ele>366</ele>
        <time>2021-08-20T18:58:02Z</time>
      </trkpt>
      <trkpt lat="43.07844" lon="-0.59235">
        <ele>368</ele>
        <time>2021-08-20T18:58:09Z</time>
      </trkpt>
      <trkpt lat="43.07852" lon="-0.59085">
        <ele>378</ele>
        <time>2021-08-20T18:58:28Z</time>
      </trkpt>
      <trkpt lat="43.07844" lon="-0.59018">
        <ele>378</ele>
        <time>2021-08-20T18:58:37Z</time>
      </trkpt>
      <trkpt lat="43.07849" lon="-0.58845">
        <ele>385</ele>
        <time>2021-08-20T18:59:00Z</time>
      </trkpt>
      <trkpt lat="43.0787" lon="-0.58755">
        <ele>395</ele>
        <time>2021-08-20T18:59:12Z</time>
      </trkpt>
      <trkpt lat="43.07893" lon="-0.58669">
        <ele>398</ele>
        <time>2021-08-20T18:59:24Z</time>
      </trkpt>
      <trkpt lat="43.07902" lon="-0.58617">
        <ele>399</ele>
        <time>2021-08-20T18:59:31Z</time>
      </trkpt>
      <trkpt lat="43.07904" lon="-0.58595">
        <ele>399</ele>
        <time>2021-08-20T18:59:34Z</time>
      </trkpt>
      <trkpt lat="43.07904" lon="-0.58566">
        <ele>399</ele>
        <time>2021-08-20T18:59:38Z</time>
      </trkpt>
      <trkpt lat="43.07895" lon="-0.58474">
        <ele>404</ele>
        <time>2021-08-20T18:59:50Z</time>
      </trkpt>
      <trkpt lat="43.07869" lon="-0.58374">
        <ele>410</ele>
        <time>2021-08-20T19:00:03Z</time>
      </trkpt>
      <trkpt lat="43.07865" lon="-0.58231">
        <ele>420</ele>
        <time>2021-08-20T19:00:22Z</time>
      </trkpt>
      <trkpt lat="43.07869" lon="-0.5821">
        <ele>419</ele>
        <time>2021-08-20T19:00:25Z</time>
      </trkpt>
      <trkpt lat="43.07881" lon="-0.58179">
        <ele>420</ele>
        <time>2021-08-20T19:00:29Z</time>
      </trkpt>
      <trkpt lat="43.07885" lon="-0.58158">
        <ele>420</ele>
        <time>2021-08-20T19:00:32Z</time>
      </trkpt>
      <trkpt lat="43.07886" lon="-0.58125">
        <ele>421</ele>
        <time>2021-08-20T19:00:36Z</time>
      </trkpt>
      <trkpt lat="43.07889" lon="-0.58095">
        <ele>422</ele>
        <time>2021-08-20T19:00:40Z</time>
      </trkpt>
      <trkpt lat="43.07908" lon="-0.58002">
        <ele>430</ele>
        <time>2021-08-20T19:00:53Z</time>
      </trkpt>
      <trkpt lat="43.07911" lon="-0.57976">
        <ele>430</ele>
        <time>2021-08-20T19:00:56Z</time>
      </trkpt>
      <trkpt lat="43.07911" lon="-0.57922">
        <ele>431</ele>
        <time>2021-08-20T19:01:03Z</time>
      </trkpt>
      <trkpt lat="43.07914" lon="-0.57905">
        <ele>431</ele>
        <time>2021-08-20T19:01:06Z</time>
      </trkpt>
      <trkpt lat="43.07924" lon="-0.57885">
        <ele>434</ele>
        <time>2021-08-20T19:01:09Z</time>
      </trkpt>
      <trkpt lat="43.07964" lon="-0.57827">
        <ele>439</ele>
        <time>2021-08-20T19:01:19Z</time>
      </trkpt>
      <trkpt lat="43.07975" lon="-0.57813">
        <ele>442</ele>
        <time>2021-08-20T19:01:22Z</time>
      </trkpt>
      <trkpt lat="43.07981" lon="-0.5781">
        <ele>442</ele>
        <time>2021-08-20T19:01:23Z</time>
      </trkpt>
      <trkpt lat="43.0799" lon="-0.57812">
        <ele>440</ele>
        <time>2021-08-20T19:01:25Z</time>
      </trkpt>
      <trkpt lat="43.07997" lon="-0.5782">
        <ele>438</ele>
        <time>2021-08-20T19:01:26Z</time>
      </trkpt>
      <trkpt lat="43.08013" lon="-0.5788">
        <ele>443</ele>
        <time>2021-08-20T19:01:35Z</time>
      </trkpt>
      <trkpt lat="43.08023" lon="-0.57893">
        <ele>445</ele>
        <time>2021-08-20T19:01:37Z</time>
      </trkpt>
      <trkpt lat="43.08045" lon="-0.57899">
        <ele>446</ele>
        <time>2021-08-20T19:01:41Z</time>
      </trkpt>
      <trkpt lat="43.08065" lon="-0.57898">
        <ele>445</ele>
        <time>2021-08-20T19:01:45Z</time>
      </trkpt>
      <trkpt lat="43.08078" lon="-0.57895">
        <ele>444</ele>
        <time>2021-08-20T19:01:47Z</time>
      </trkpt>
      <trkpt lat="43.08088" lon="-0.57887">
        <ele>445</ele>
        <time>2021-08-20T19:01:49Z</time>
      </trkpt>
      <trkpt lat="43.08095" lon="-0.57874">
        <ele>445</ele>
        <time>2021-08-20T19:01:51Z</time>
      </trkpt>
      <trkpt lat="43.08098" lon="-0.57861">
        <ele>443</ele>
        <time>2021-08-20T19:01:53Z</time>
      </trkpt>
      <trkpt lat="43.08111" lon="-0.57737">
        <ele>444</ele>
        <time>2021-08-20T19:02:09Z</time>
      </trkpt>
      <trkpt lat="43.08113" lon="-0.57698">
        <ele>444</ele>
        <time>2021-08-20T19:02:14Z</time>
      </trkpt>
      <trkpt lat="43.08108" lon="-0.57661">
        <ele>444</ele>
        <time>2021-08-20T19:02:19Z</time>
      </trkpt>
      <trkpt lat="43.08098" lon="-0.57625">
        <ele>447</ele>
        <time>2021-08-20T19:02:24Z</time>
      </trkpt>
      <trkpt lat="43.08054" lon="-0.57549">
        <ele>466</ele>
        <time>2021-08-20T19:02:37Z</time>
      </trkpt>
      <trkpt lat="43.08051" lon="-0.57532">
        <ele>468</ele>
        <time>2021-08-20T19:02:39Z</time>
      </trkpt>
      <trkpt lat="43.08052" lon="-0.57512">
        <ele>468</ele>
        <time>2021-08-20T19:02:42Z</time>
      </trkpt>
      <trkpt lat="43.08069" lon="-0.57421">
        <ele>464</ele>
        <time>2021-08-20T19:02:54Z</time>
      </trkpt>
      <trkpt lat="43.08101" lon="-0.57355">
        <ele>463</ele>
        <time>2021-08-20T19:03:04Z</time>
      </trkpt>
      <trkpt lat="43.08115" lon="-0.57324">
        <ele>464</ele>
        <time>2021-08-20T19:03:09Z</time>
      </trkpt>
      <trkpt lat="43.08121" lon="-0.57299">
        <ele>465</ele>
        <time>2021-08-20T19:03:12Z</time>
      </trkpt>
      <trkpt lat="43.08121" lon="-0.57233">
        <ele>466</ele>
        <time>2021-08-20T19:03:21Z</time>
      </trkpt>
      <trkpt lat="43.08113" lon="-0.5717">
        <ele>468</ele>
        <time>2021-08-20T19:03:29Z</time>
      </trkpt>
      <trkpt lat="43.08104" lon="-0.5714">
        <ele>468</ele>
        <time>2021-08-20T19:03:33Z</time>
      </trkpt>
      <trkpt lat="43.08091" lon="-0.57116">
        <ele>468</ele>
        <time>2021-08-20T19:03:37Z</time>
      </trkpt>
      <trkpt lat="43.08062" lon="-0.57072">
        <ele>479</ele>
        <time>2021-08-20T19:03:45Z</time>
      </trkpt>
      <trkpt lat="43.08055" lon="-0.57052">
        <ele>482</ele>
        <time>2021-08-20T19:03:48Z</time>
      </trkpt>
      <trkpt lat="43.0805" lon="-0.57022">
        <ele>484</ele>
        <time>2021-08-20T19:03:52Z</time>
      </trkpt>
      <trkpt lat="43.08056" lon="-0.56929">
        <ele>481</ele>
        <time>2021-08-20T19:04:04Z</time>
      </trkpt>
      <trkpt lat="43.08049" lon="-0.56877">
        <ele>485</ele>
        <time>2021-08-20T19:04:11Z</time>
      </trkpt>
      <trkpt lat="43.08027" lon="-0.56815">
        <ele>488</ele>
        <time>2021-08-20T19:04:20Z</time>
      </trkpt>
      <trkpt lat="43.08013" lon="-0.56768">
        <ele>489</ele>
        <time>2021-08-20T19:04:26Z</time>
      </trkpt>
      <trkpt lat="43.08008" lon="-0.56736">
        <ele>490</ele>
        <time>2021-08-20T19:04:31Z</time>
      </trkpt>
      <trkpt lat="43.08027" lon="-0.56626">
        <ele>498</ele>
        <time>2021-08-20T19:04:45Z</time>
      </trkpt>
      <trkpt lat="43.08028" lon="-0.56569">
        <ele>502</ele>
        <time>2021-08-20T19:04:53Z</time>
      </trkpt>
      <trkpt lat="43.07997" lon="-0.56385">
        <ele>497</ele>
        <time>2021-08-20T19:05:17Z</time>
      </trkpt>
      <trkpt lat="43.07991" lon="-0.56373">
        <ele>499</ele>
        <time>2021-08-20T19:05:19Z</time>
      </trkpt>
      <trkpt lat="43.07987" lon="-0.56368">
        <ele>500</ele>
        <time>2021-08-20T19:05:20Z</time>
      </trkpt>
      <trkpt lat="43.07977" lon="-0.56357">
        <ele>502</ele>
        <time>2021-08-20T19:05:22Z</time>
      </trkpt>
      <trkpt lat="43.07965" lon="-0.56346">
        <ele>504</ele>
        <time>2021-08-20T19:05:25Z</time>
      </trkpt>
      <trkpt lat="43.07956" lon="-0.56342">
        <ele>506</ele>
        <time>2021-08-20T19:05:27Z</time>
      </trkpt>
      <trkpt lat="43.0789" lon="-0.56336">
        <ele>519</ele>
        <time>2021-08-20T19:05:38Z</time>
      </trkpt>
      <trkpt lat="43.07876" lon="-0.56328">
        <ele>521</ele>
        <time>2021-08-20T19:05:41Z</time>
      </trkpt>
      <trkpt lat="43.0784" lon="-0.56288">
        <ele>522</ele>
        <time>2021-08-20T19:05:49Z</time>
      </trkpt>
      <trkpt lat="43.07828" lon="-0.56266">
        <ele>521</ele>
        <time>2021-08-20T19:05:53Z</time>
      </trkpt>
      <trkpt lat="43.07815" lon="-0.56188">
        <ele>525</ele>
        <time>2021-08-20T19:06:03Z</time>
      </trkpt>
      <trkpt lat="43.07803" lon="-0.5609">
        <ele>532</ele>
        <time>2021-08-20T19:06:16Z</time>
      </trkpt>
      <trkpt lat="43.07797" lon="-0.5606">
        <ele>535</ele>
        <time>2021-08-20T19:06:20Z</time>
      </trkpt>
      <trkpt lat="43.07787" lon="-0.56032">
        <ele>536</ele>
        <time>2021-08-20T19:06:24Z</time>
      </trkpt>
      <trkpt lat="43.0774" lon="-0.55974">
        <ele>534</ele>
        <time>2021-08-20T19:06:36Z</time>
      </trkpt>
      <trkpt lat="43.07733" lon="-0.55957">
        <ele>537</ele>
        <time>2021-08-20T19:06:38Z</time>
      </trkpt>
      <trkpt lat="43.07723" lon="-0.55913">
        <ele>539</ele>
        <time>2021-08-20T19:06:44Z</time>
      </trkpt>
      <trkpt lat="43.07707" lon="-0.55853">
        <ele>543</ele>
        <time>2021-08-20T19:06:52Z</time>
      </trkpt>
      <trkpt lat="43.07702" lon="-0.55836">
        <ele>543</ele>
        <time>2021-08-20T19:06:55Z</time>
      </trkpt>
      <trkpt lat="43.07695" lon="-0.55809">
        <ele>545</ele>
        <time>2021-08-20T19:06:59Z</time>
      </trkpt>
      <trkpt lat="43.07692" lon="-0.55789">
        <ele>547</ele>
        <time>2021-08-20T19:07:01Z</time>
      </trkpt>
      <trkpt lat="43.0769" lon="-0.55774">
        <ele>549</ele>
        <time>2021-08-20T19:07:03Z</time>
      </trkpt>
      <trkpt lat="43.07688" lon="-0.55765">
        <ele>549</ele>
        <time>2021-08-20T19:07:04Z</time>
      </trkpt>
      <trkpt lat="43.0769" lon="-0.55708">
        <ele>553</ele>
        <time>2021-08-20T19:07:12Z</time>
      </trkpt>
      <trkpt lat="43.07679" lon="-0.55666">
        <ele>553</ele>
        <time>2021-08-20T19:07:18Z</time>
      </trkpt>
      <trkpt lat="43.07651" lon="-0.55505">
        <ele>556</ele>
        <time>2021-08-20T19:07:39Z</time>
      </trkpt>
      <trkpt lat="43.07629" lon="-0.55423">
        <ele>565</ele>
        <time>2021-08-20T19:07:50Z</time>
      </trkpt>
      <trkpt lat="43.07612" lon="-0.55373">
        <ele>569</ele>
        <time>2021-08-20T19:07:58Z</time>
      </trkpt>
      <trkpt lat="43.07558" lon="-0.55308">
        <ele>576</ele>
        <time>2021-08-20T19:08:10Z</time>
      </trkpt>
      <trkpt lat="43.07533" lon="-0.55235">
        <ele>578</ele>
        <time>2021-08-20T19:08:21Z</time>
      </trkpt>
      <trkpt lat="43.07529" lon="-0.55213">
        <ele>579</ele>
        <time>2021-08-20T19:08:24Z</time>
      </trkpt>
      <trkpt lat="43.07528" lon="-0.55192">
        <ele>579</ele>
        <time>2021-08-20T19:08:27Z</time>
      </trkpt>
      <trkpt lat="43.07531" lon="-0.55163">
        <ele>579</ele>
        <time>2021-08-20T19:08:30Z</time>
      </trkpt>
      <trkpt lat="43.07537" lon="-0.5513">
        <ele>581</ele>
        <time>2021-08-20T19:08:35Z</time>
      </trkpt>
      <trkpt lat="43.07539" lon="-0.55108">
        <ele>583</ele>
        <time>2021-08-20T19:08:38Z</time>
      </trkpt>
      <trkpt lat="43.07513" lon="-0.54899">
        <ele>598</ele>
        <time>2021-08-20T19:09:05Z</time>
      </trkpt>
      <trkpt lat="43.07485" lon="-0.54632">
        <ele>620</ele>
        <time>2021-08-20T19:09:40Z</time>
      </trkpt>
      <trkpt lat="43.07463" lon="-0.54522">
        <ele>635</ele>
        <time>2021-08-20T19:09:55Z</time>
      </trkpt>
      <trkpt lat="43.07463" lon="-0.54493">
        <ele>637</ele>
        <time>2021-08-20T19:09:59Z</time>
      </trkpt>
      <trkpt lat="43.07477" lon="-0.54413">
        <ele>636</ele>
        <time>2021-08-20T19:10:10Z</time>
      </trkpt>
      <trkpt lat="43.07475" lon="-0.54387">
        <ele>638</ele>
        <time>2021-08-20T19:10:13Z</time>
      </trkpt>
      <trkpt lat="43.07458" lon="-0.54332">
        <ele>650</ele>
        <time>2021-08-20T19:10:21Z</time>
      </trkpt>
      <trkpt lat="43.07453" lon="-0.543">
        <ele>653</ele>
        <time>2021-08-20T19:10:25Z</time>
      </trkpt>
      <trkpt lat="43.07452" lon="-0.5427">
        <ele>653</ele>
        <time>2021-08-20T19:10:29Z</time>
      </trkpt>
      <trkpt lat="43.07461" lon="-0.54209">
        <ele>648</ele>
        <time>2021-08-20T19:10:37Z</time>
      </trkpt>
      <trkpt lat="43.0746" lon="-0.54175">
        <ele>649</ele>
        <time>2021-08-20T19:10:41Z</time>
      </trkpt>
      <trkpt lat="43.07454" lon="-0.54143">
        <ele>652</ele>
        <time>2021-08-20T19:10:46Z</time>
      </trkpt>
      <trkpt lat="43.07445" lon="-0.54115">
        <ele>655</ele>
        <time>2021-08-20T19:10:50Z</time>
      </trkpt>
      <trkpt lat="43.07432" lon="-0.54081">
        <ele>660</ele>
        <time>2021-08-20T19:10:55Z</time>
      </trkpt>
      <trkpt lat="43.07396" lon="-0.54012">
        <ele>666</ele>
        <time>2021-08-20T19:11:06Z</time>
      </trkpt>
      <trkpt lat="43.07369" lon="-0.53965">
        <ele>674</ele>
        <time>2021-08-20T19:11:13Z</time>
      </trkpt>
      <trkpt lat="43.07349" lon="-0.5392">
        <ele>680</ele>
        <time>2021-08-20T19:11:20Z</time>
      </trkpt>
      <trkpt lat="43.07335" lon="-0.53874">
        <ele>687</ele>
        <time>2021-08-20T19:11:27Z</time>
      </trkpt>
      <trkpt lat="43.07322" lon="-0.53791">
        <ele>698</ele>
        <time>2021-08-20T19:11:38Z</time>
      </trkpt>
      <trkpt lat="43.0732" lon="-0.53753">
        <ele>700</ele>
        <time>2021-08-20T19:11:43Z</time>
      </trkpt>
      <trkpt lat="43.07323" lon="-0.53722">
        <ele>702</ele>
        <time>2021-08-20T19:11:47Z</time>
      </trkpt>
      <trkpt lat="43.0734" lon="-0.53615">
        <ele>706</ele>
        <time>2021-08-20T19:12:01Z</time>
      </trkpt>
      <trkpt lat="43.0734" lon="-0.53591">
        <ele>709</ele>
        <time>2021-08-20T19:12:04Z</time>
      </trkpt>
      <trkpt lat="43.07335" lon="-0.53524">
        <ele>716</ele>
        <time>2021-08-20T19:12:13Z</time>
      </trkpt>
      <trkpt lat="43.07331" lon="-0.53487">
        <ele>719</ele>
        <time>2021-08-20T19:12:18Z</time>
      </trkpt>
      <trkpt lat="43.07322" lon="-0.53455">
        <ele>723</ele>
        <time>2021-08-20T19:12:22Z</time>
      </trkpt>
      <trkpt lat="43.073" lon="-0.53406">
        <ele>736</ele>
        <time>2021-08-20T19:12:30Z</time>
      </trkpt>
      <trkpt lat="43.0729" lon="-0.53377">
        <ele>744</ele>
        <time>2021-08-20T19:12:34Z</time>
      </trkpt>
      <trkpt lat="43.07284" lon="-0.53309">
        <ele>759</ele>
        <time>2021-08-20T19:12:43Z</time>
      </trkpt>
      <trkpt lat="43.07286" lon="-0.53283">
        <ele>763</ele>
        <time>2021-08-20T19:12:46Z</time>
      </trkpt>
      <trkpt lat="43.07291" lon="-0.53264">
        <ele>765</ele>
        <time>2021-08-20T19:12:49Z</time>
      </trkpt>
      <trkpt lat="43.07317" lon="-0.53202">
        <ele>766</ele>
        <time>2021-08-20T19:12:58Z</time>
      </trkpt>
      <trkpt lat="43.07339" lon="-0.53163">
        <ele>764</ele>
        <time>2021-08-20T19:13:05Z</time>
      </trkpt>
      <trkpt lat="43.07344" lon="-0.53145">
        <ele>764</ele>
        <time>2021-08-20T19:13:07Z</time>
      </trkpt>
      <trkpt lat="43.07349" lon="-0.53121">
        <ele>765</ele>
        <time>2021-08-20T19:13:10Z</time>
      </trkpt>
      <trkpt lat="43.07351" lon="-0.531">
        <ele>767</ele>
        <time>2021-08-20T19:13:13Z</time>
      </trkpt>
      <trkpt lat="43.07349" lon="-0.53062">
        <ele>770</ele>
        <time>2021-08-20T19:13:18Z</time>
      </trkpt>
      <trkpt lat="43.07342" lon="-0.5303">
        <ele>772</ele>
        <time>2021-08-20T19:13:22Z</time>
      </trkpt>
      <trkpt lat="43.07338" lon="-0.5302">
        <ele>774</ele>
        <time>2021-08-20T19:13:24Z</time>
      </trkpt>
      <trkpt lat="43.07332" lon="-0.53012">
        <ele>777</ele>
        <time>2021-08-20T19:13:25Z</time>
      </trkpt>
      <trkpt lat="43.07303" lon="-0.5299">
        <ele>793</ele>
        <time>2021-08-20T19:13:31Z</time>
      </trkpt>
      <trkpt lat="43.0729" lon="-0.52976">
        <ele>798</ele>
        <time>2021-08-20T19:13:34Z</time>
      </trkpt>
      <trkpt lat="43.07277" lon="-0.52958">
        <ele>801</ele>
        <time>2021-08-20T19:13:37Z</time>
      </trkpt>
      <trkpt lat="43.0725" lon="-0.52913">
        <ele>805</ele>
        <time>2021-08-20T19:13:45Z</time>
      </trkpt>
      <trkpt lat="43.07246" lon="-0.52905">
        <ele>806</ele>
        <time>2021-08-20T19:13:46Z</time>
      </trkpt>
      <trkpt lat="43.07237" lon="-0.52856">
        <ele>798</ele>
        <time>2021-08-20T19:13:53Z</time>
      </trkpt>
      <trkpt lat="43.07234" lon="-0.52847">
        <ele>797</ele>
        <time>2021-08-20T19:13:54Z</time>
      </trkpt>
      <trkpt lat="43.07225" lon="-0.5283">
        <ele>798</ele>
        <time>2021-08-20T19:13:57Z</time>
      </trkpt>
      <trkpt lat="43.07212" lon="-0.52817">
        <ele>803</ele>
        <time>2021-08-20T19:14:00Z</time>
      </trkpt>
      <trkpt lat="43.07205" lon="-0.52812">
        <ele>806</ele>
        <time>2021-08-20T19:14:01Z</time>
      </trkpt>
      <trkpt lat="43.07196" lon="-0.52808">
        <ele>810</ele>
        <time>2021-08-20T19:14:03Z</time>
      </trkpt>
      <trkpt lat="43.0717" lon="-0.52804">
        <ele>822</ele>
        <time>2021-08-20T19:14:07Z</time>
      </trkpt>
      <trkpt lat="43.07163" lon="-0.52801">
        <ele>825</ele>
        <time>2021-08-20T19:14:09Z</time>
      </trkpt>
      <trkpt lat="43.07153" lon="-0.52787">
        <ele>826</ele>
        <time>2021-08-20T19:14:11Z</time>
      </trkpt>
      <trkpt lat="43.07148" lon="-0.52763">
        <ele>822</ele>
        <time>2021-08-20T19:14:15Z</time>
      </trkpt>
      <trkpt lat="43.07141" lon="-0.5272">
        <ele>819</ele>
        <time>2021-08-20T19:14:20Z</time>
      </trkpt>
      <trkpt lat="43.0713" lon="-0.52678">
        <ele>821</ele>
        <time>2021-08-20T19:14:26Z</time>
      </trkpt>
      <trkpt lat="43.07119" lon="-0.52631">
        <ele>825</ele>
        <time>2021-08-20T19:14:32Z</time>
      </trkpt>
      <trkpt lat="43.07097" lon="-0.52573">
        <ele>835</ele>
        <time>2021-08-20T19:14:41Z</time>
      </trkpt>
      <trkpt lat="43.07019" lon="-0.5231">
        <ele>877</ele>
        <time>2021-08-20T19:15:18Z</time>
      </trkpt>
      <trkpt lat="43.07" lon="-0.52165">
        <ele>892</ele>
        <time>2021-08-20T19:15:37Z</time>
      </trkpt>
      <trkpt lat="43.07011" lon="-0.52052">
        <ele>898</ele>
        <time>2021-08-20T19:15:52Z</time>
      </trkpt>
      <trkpt lat="43.0701" lon="-0.52001">
        <ele>902</ele>
        <time>2021-08-20T19:15:58Z</time>
      </trkpt>
      <trkpt lat="43.07003" lon="-0.51957">
        <ele>913</ele>
        <time>2021-08-20T19:16:04Z</time>
      </trkpt>
      <trkpt lat="43.07003" lon="-0.51945">
        <ele>914</ele>
        <time>2021-08-20T19:16:06Z</time>
      </trkpt>
      <trkpt lat="43.07005" lon="-0.51919">
        <ele>917</ele>
        <time>2021-08-20T19:16:09Z</time>
      </trkpt>
      <trkpt lat="43.07044" lon="-0.51776">
        <ele>924</ele>
        <time>2021-08-20T19:16:29Z</time>
      </trkpt>
      <trkpt lat="43.07053" lon="-0.51691">
        <ele>931</ele>
        <time>2021-08-20T19:16:40Z</time>
      </trkpt>
      <trkpt lat="43.07054" lon="-0.51669">
        <ele>934</ele>
        <time>2021-08-20T19:16:43Z</time>
      </trkpt>
      <trkpt lat="43.07052" lon="-0.51646">
        <ele>937</ele>
        <time>2021-08-20T19:16:46Z</time>
      </trkpt>
      <trkpt lat="43.07046" lon="-0.51604">
        <ele>943</ele>
        <time>2021-08-20T19:16:52Z</time>
      </trkpt>
      <trkpt lat="43.07048" lon="-0.5158">
        <ele>943</ele>
        <time>2021-08-20T19:16:55Z</time>
      </trkpt>
      <trkpt lat="43.07058" lon="-0.51523">
        <ele>945</ele>
        <time>2021-08-20T19:17:02Z</time>
      </trkpt>
      <trkpt lat="43.07059" lon="-0.51451">
        <ele>957</ele>
        <time>2021-08-20T19:17:12Z</time>
      </trkpt>
      <trkpt lat="43.07075" lon="-0.51365">
        <ele>960</ele>
        <time>2021-08-20T19:17:23Z</time>
      </trkpt>
      <trkpt lat="43.07077" lon="-0.51347">
        <ele>961</ele>
        <time>2021-08-20T19:17:26Z</time>
      </trkpt>
      <trkpt lat="43.07075" lon="-0.51298">
        <ele>964</ele>
        <time>2021-08-20T19:17:32Z</time>
      </trkpt>
      <trkpt lat="43.07071" lon="-0.51286">
        <ele>966</ele>
        <time>2021-08-20T19:17:34Z</time>
      </trkpt>
      <trkpt lat="43.07063" lon="-0.51271">
        <ele>971</ele>
        <time>2021-08-20T19:17:36Z</time>
      </trkpt>
      <trkpt lat="43.07037" lon="-0.51232">
        <ele>987</ele>
        <time>2021-08-20T19:17:43Z</time>
      </trkpt>
      <trkpt lat="43.07033" lon="-0.51223">
        <ele>989</ele>
        <time>2021-08-20T19:17:44Z</time>
      </trkpt>
      <trkpt lat="43.07032" lon="-0.51207">
        <ele>989</ele>
        <time>2021-08-20T19:17:47Z</time>
      </trkpt>
      <trkpt lat="43.07033" lon="-0.5117">
        <ele>988</ele>
        <time>2021-08-20T19:17:51Z</time>
      </trkpt>
      <trkpt lat="43.07024" lon="-0.51136">
        <ele>992</ele>
        <time>2021-08-20T19:17:56Z</time>
      </trkpt>
    </trkseg>
  </trk>
</gpx>